Pagrindinis puslapis
METAR-TAF:

METAR-TAF

Oro uostai :

Kuveitas, Kuveitas

platuma: 29-13N, ilguma: 047-59E, Aukštis: 55 m

Dabartinis oras

Ataskaita buvo paskelbta 1 valandą ir 9 minutes, ne 17:00 UTC
Ramus vėjas
Temperatūra 24°C
Drėgmė 31%
Slėgis 1013 hPa
Matomumas 10 km arba daugiau
nėra debesų žemiau 1500 m ir nėra kamuolinių lietaus debesų

METAR: OKBK 221700Z 00000KT CAVOK 24/06 Q1013 NOSIG

Laikas: 21:09 (18:09 UTC)

Prognozė

Ataskaita buvo paskelbta 1 valandą ir 24 minutes, ne 16:45 UTC
Prognozė galioja nuo 22 metu 18 UTC su 23 metu 24 UTC
Vėjas 3 kt nuo kintamojo kryptimis
Matomumas: 6000 m
Tapsmas
nuo 22 metu 20 UTC su 22 metu 22 UTC
Vėjas 12 kt iš Šiaurės Vakarų

TAF: OKBK 221645Z 2218/2324 VRB03KT 6000 NSC BECMG 2220/2222 32012KT

Orai ataskaitas ir orų prognozės (METAR, TAF).

turimą stotys yra geltonos ir raudonos taškus žemėlapyje.

Perkelti pele per norėdami pamatyti stoties vardą.

Tada spustelėkite, norėdami matyti oro stebėjimo ir prognozės.

Norėdami pakeisti žemėlapį: spustelėkite ant žalios mygtukų su juodo kryžiaus žemyn,; žalią mygtuką su brūkšneliu, jei norite nutolinti; arba žalių rodyklių gretimoms žemėlapius.


METAR-TAF: